createdAt,value
2023-01-15T00:02:18.973Z,100892.46
2023-01-15T00:04:46.339Z,100894.55
2023-01-15T00:07:13.341Z,100891.55
2023-01-15T00:09:40.357Z,100887.85
2023-01-15T00:12:07.819Z,100888.56
2023-01-15T00:14:34.859Z,100884.83
2023-01-15T00:17:02.281Z,100884.63
2023-01-15T00:19:29.309Z,100881.13
2023-01-15T00:21:56.479Z,100880.77
2023-01-15T00:24:42.294Z,100879.38
2023-01-15T00:27:30.152Z,100878.48
2023-01-15T00:29:57.204Z,100877.45
2023-01-15T00:32:27.333Z,100875.86
2023-01-15T00:34:54.814Z,100871.84
2023-01-15T00:37:22.005Z,100869.38
2023-01-15T00:39:49.060Z,100866.49
2023-01-15T00:42:17.554Z,100863.14
2023-01-15T00:44:46.860Z,100865.56
2023-01-15T00:47:15.423Z,100862.19
2023-01-15T00:49:42.826Z,100861.30
2023-01-15T00:52:11.355Z,100859.86
2023-01-15T00:54:38.474Z,100857.38
2023-01-15T00:57:05.595Z,100855.98
2023-01-15T00:59:32.791Z,100859.84
2023-01-15T01:01:59.944Z,100855.98
2023-01-15T01:04:29.771Z,100854.90
2023-01-15T01:06:56.908Z,100852.81
2023-01-15T01:09:24.398Z,100851.81
2023-01-15T01:11:51.465Z,100856.06
2023-01-15T01:14:18.498Z,100852.60
2023-01-15T01:16:45.781Z,100850.14
2023-01-15T01:19:16.213Z,100847.55
2023-01-15T01:21:45.874Z,100852.80
2023-01-15T01:24:19.313Z,100855.94
2023-01-15T01:26:48.834Z,100851.25
2023-01-15T01:29:18.728Z,100853.30
2023-01-15T01:31:46.398Z,100855.20
2023-01-15T01:34:15.086Z,100851.50
2023-01-15T01:36:44.146Z,100847.63
2023-01-15T01:39:17.202Z,100847.11
2023-01-15T01:41:45.075Z,100843.61
2023-01-15T01:44:35.073Z,100840.31
2023-01-15T01:47:07.148Z,100837.82
2023-01-15T01:49:35.667Z,100838.92
2023-01-15T01:52:08.018Z,100841.24
2023-01-15T01:54:38.026Z,100835.75
2023-01-15T01:57:06.815Z,100830.52
2023-01-15T01:59:34.643Z,100832.08
2023-01-15T02:02:03.975Z,100832.20
2023-01-15T02:04:32.243Z,100826.88
2023-01-15T02:07:01.023Z,100823.45
2023-01-15T02:09:28.149Z,100815.70
2023-01-15T02:11:58.490Z,100817.05
2023-01-15T02:14:37.303Z,100814.58
2023-01-15T02:17:33.859Z,100817.34
2023-01-15T02:20:23.129Z,100815.86
2023-01-15T02:23:02.685Z,100817.00
2023-01-15T02:25:50.083Z,100819.23
2023-01-15T02:28:27.285Z,100815.35
2023-01-15T02:31:05.547Z,100811.54
2023-01-15T02:33:41.526Z,100812.07
2023-01-15T02:36:12.680Z,100816.30
2023-01-15T02:38:44.754Z,100817.19
2023-01-15T02:41:20.214Z,100819.10
2023-01-15T02:43:54.537Z,100820.57
2023-01-15T02:46:29.901Z,100817.71
2023-01-15T02:48:59.985Z,100822.92
2023-01-15T02:51:36.855Z,100829.00
2023-01-15T02:54:09.722Z,100828.64
2023-01-15T02:56:39.157Z,100821.80
2023-01-15T02:59:11.059Z,100818.63
2023-01-15T03:01:52.373Z,100821.39
2023-01-15T03:04:22.697Z,100820.60
2023-01-15T03:07:01.083Z,100825.89
2023-01-15T03:09:31.664Z,100822.24
2023-01-15T03:12:04.995Z,100825.11
2023-01-15T03:14:44.922Z,100825.30
2023-01-15T03:17:30.359Z,100823.88
2023-01-15T03:20:06.833Z,100827.04
2023-01-15T03:22:38.575Z,100829.31
2023-01-15T03:25:08.421Z,100830.35
2023-01-15T03:27:40.932Z,100832.61
2023-01-15T03:30:19.515Z,100831.20
2023-01-15T03:32:48.094Z,100828.52
2023-01-15T03:35:50.273Z,100826.98
2023-01-15T03:38:37.350Z,100826.42
2023-01-15T03:41:27.095Z,100824.19
2023-01-15T03:44:12.083Z,100824.20
2023-01-15T03:46:55.064Z,100824.23
2023-01-15T03:49:22.300Z,100826.63
2023-01-15T03:52:12.820Z,100826.98
2023-01-15T03:54:53.798Z,100827.46
2023-01-15T03:57:35.199Z,100825.27
2023-01-15T04:00:14.907Z,100828.34
2023-01-15T04:02:47.993Z,100831.78
2023-01-15T04:05:18.066Z,100833.35
2023-01-15T04:07:49.492Z,100833.48
2023-01-15T04:10:17.293Z,100835.93
2023-01-15T04:12:45.165Z,100836.46
2023-01-15T04:15:13.394Z,100837.67
2023-01-15T04:17:40.673Z,100836.46
2023-01-15T04:20:09.715Z,100834.38
2023-01-15T04:22:40.024Z,100837.19
2023-01-15T04:25:08.015Z,100839.86
2023-01-15T04:27:35.142Z,100834.82
2023-01-15T04:30:02.614Z,100835.77
2023-01-15T04:32:29.731Z,100837.35
2023-01-15T04:34:56.798Z,100838.41
2023-01-15T04:37:23.913Z,100838.17
2023-01-15T04:39:50.957Z,100837.77
2023-01-15T04:42:36.795Z,100840.40
2023-01-15T04:45:04.674Z,100837.59
2023-01-15T04:47:32.176Z,100842.12
2023-01-15T04:49:59.272Z,100844.77
2023-01-15T04:52:26.551Z,100848.75
2023-01-15T04:54:56.130Z,100852.42
2023-01-15T04:57:23.515Z,100852.42
2023-01-15T04:59:50.574Z,100847.05
2023-01-15T05:02:17.716Z,100848.63
2023-01-15T05:04:44.824Z,100846.21
2023-01-15T05:07:11.973Z,100843.31
2023-01-15T05:09:39.028Z,100842.96
2023-01-15T05:12:06.353Z,100846.75
2023-01-15T05:14:33.364Z,100848.91
2023-01-15T05:17:00.419Z,100842.23
2023-01-15T05:19:27.514Z,100846.94
2023-01-15T05:21:54.606Z,100845.56
2023-01-15T05:24:21.755Z,100847.88
2023-01-15T05:26:48.988Z,100850.31
2023-01-15T05:29:16.073Z,100851.40
2023-01-15T05:31:45.435Z,100848.09
2023-01-15T05:34:13.412Z,100847.04
2023-01-15T05:36:41.094Z,100855.16
2023-01-15T05:39:08.573Z,100858.14
2023-01-15T05:41:51.198Z,100857.45
2023-01-15T05:44:29.966Z,100856.09
2023-01-15T05:47:00.512Z,100862.98
2023-01-15T05:49:30.110Z,100860.58
2023-01-15T05:51:58.299Z,100859.05
2023-01-15T05:54:27.969Z,100859.38
2023-01-15T05:56:55.255Z,100855.85
2023-01-15T05:59:25.260Z,100858.21
2023-01-15T06:01:53.350Z,100860.11
2023-01-15T06:04:25.265Z,100858.98
2023-01-15T06:06:54.540Z,100859.14
2023-01-15T06:09:23.354Z,100866.48
2023-01-15T06:11:51.096Z,100870.20
2023-01-15T06:14:18.315Z,100869.65
2023-01-15T06:16:45.697Z,100869.48
2023-01-15T06:19:14.168Z,100870.36
2023-01-15T06:21:41.252Z,100872.73
2023-01-15T06:24:09.445Z,100873.80
2023-01-15T06:26:37.917Z,100873.27
2023-01-15T06:29:04.989Z,100871.71
2023-01-15T06:31:32.959Z,100869.10
2023-01-15T06:34:00.153Z,100868.02
2023-01-15T06:36:28.077Z,100868.32
2023-01-15T06:38:55.911Z,100874.92
2023-01-15T06:41:44.626Z,100877.89
2023-01-15T06:44:36.187Z,100882.60
2023-01-15T06:47:23.878Z,100879.77
2023-01-15T06:49:53.369Z,100887.99
2023-01-15T06:52:21.323Z,100891.01
2023-01-15T06:54:48.443Z,100890.96
2023-01-15T06:57:15.531Z,100894.48
2023-01-15T06:59:42.548Z,100888.17
2023-01-15T07:02:11.307Z,100879.62
2023-01-15T07:04:38.486Z,100884.37
2023-01-15T07:07:05.552Z,100881.00
2023-01-15T07:09:32.712Z,100887.41
2023-01-15T07:12:01.061Z,100887.98
2023-01-15T07:14:32.231Z,100891.65
2023-01-15T07:16:59.538Z,100890.30
2023-01-15T07:19:27.805Z,100886.04
2023-01-15T07:21:55.092Z,100881.47
2023-01-15T07:24:22.200Z,100875.38
2023-01-15T07:26:49.461Z,100874.09
2023-01-15T07:29:16.537Z,100876.24
2023-01-15T07:31:43.626Z,100877.20
2023-01-15T07:34:10.799Z,100874.73
2023-01-15T07:36:38.127Z,100878.55
2023-01-15T07:39:07.919Z,100878.21
2023-01-15T07:41:53.565Z,100880.39
2023-01-15T07:44:40.125Z,100877.58
2023-01-15T07:47:52.159Z,100875.09
2023-01-15T07:50:22.322Z,100873.05
2023-01-15T07:52:52.829Z,100873.63
2023-01-15T07:55:21.843Z,100871.59
2023-01-15T07:57:49.942Z,100876.67
2023-01-15T08:00:22.060Z,100872.79
2023-01-15T08:02:51.016Z,100872.71
2023-01-15T08:05:19.329Z,100869.95
2023-01-15T08:07:46.829Z,100869.47
2023-01-15T08:10:14.383Z,100869.33
2023-01-15T08:13:00.221Z,100869.80
2023-01-15T08:15:36.665Z,100869.20
2023-01-15T08:18:05.186Z,100865.94
2023-01-15T08:20:32.243Z,100865.05
2023-01-15T08:23:01.761Z,100859.67
2023-01-15T08:25:28.846Z,100858.70
2023-01-15T08:27:56.689Z,100857.46
2023-01-15T08:30:26.048Z,100853.02
2023-01-15T08:32:53.306Z,100851.98
2023-01-15T08:35:20.550Z,100855.46
2023-01-15T08:37:47.700Z,100856.84
2023-01-15T08:40:14.761Z,100851.33
2023-01-15T08:42:42.676Z,100851.56
2023-01-15T08:45:10.368Z,100849.15
2023-01-15T08:47:37.848Z,100842.36
2023-01-15T08:50:06.714Z,100838.60
2023-01-15T08:52:33.773Z,100836.14
2023-01-15T08:55:00.890Z,100830.08
2023-01-15T08:57:28.158Z,100827.08
2023-01-15T08:59:55.299Z,100815.60
2023-01-15T09:02:22.459Z,100816.05
2023-01-15T09:04:49.582Z,100816.85
2023-01-15T09:07:17.049Z,100811.66
2023-01-15T09:09:44.068Z,100812.73
2023-01-15T09:12:11.185Z,100812.73
2023-01-15T09:14:58.143Z,100806.19
2023-01-15T09:17:25.371Z,100800.98
2023-01-15T09:19:52.555Z,100798.87
2023-01-15T09:22:19.895Z,100802.25
2023-01-15T09:24:47.463Z,100801.77
2023-01-15T09:27:14.887Z,100796.80
2023-01-15T09:29:41.904Z,100795.13
2023-01-15T09:32:10.660Z,100791.38
2023-01-15T09:34:37.814Z,100794.40
2023-01-15T09:37:04.884Z,100793.74
2023-01-15T09:39:32.064Z,100790.55
2023-01-15T09:42:24.309Z,100783.98
2023-01-15T09:45:28.727Z,100781.89
2023-01-15T09:48:32.922Z,100781.52
2023-01-15T09:51:16.731Z,100779.27
2023-01-15T09:54:06.979Z,100778.42
2023-01-15T09:56:37.350Z,100775.73
2023-01-15T09:59:25.060Z,100773.20
2023-01-15T10:01:54.019Z,100768.61
2023-01-15T10:04:30.616Z,100764.27
2023-01-15T10:07:11.522Z,100757.67
2023-01-15T10:09:41.183Z,100754.52
2023-01-15T10:12:35.839Z,100757.13
2023-01-15T10:15:44.853Z,100753.70
2023-01-15T10:18:19.761Z,100749.16
2023-01-15T10:21:18.313Z,100751.27
2023-01-15T10:24:13.483Z,100745.16
2023-01-15T10:26:59.217Z,100738.70
2023-01-15T10:29:49.715Z,100743.50
2023-01-15T10:32:29.991Z,100742.87
2023-01-15T10:35:16.016Z,100746.89
2023-01-15T10:38:04.956Z,100750.06
2023-01-15T10:40:44.663Z,100742.34
2023-01-15T10:43:19.396Z,100742.52
2023-01-15T10:45:56.117Z,100743.52
2023-01-15T10:48:29.372Z,100741.32
2023-01-15T10:51:01.113Z,100745.04
2023-01-15T10:53:45.204Z,100746.96
2023-01-15T10:56:43.750Z,100747.23
2023-01-15T10:59:19.170Z,100742.10
2023-01-15T11:01:46.593Z,100738.23
2023-01-15T11:04:14.071Z,100737.02
2023-01-15T11:06:42.265Z,100734.03
2023-01-15T11:09:23.174Z,100734.02
2023-01-15T11:12:06.028Z,100730.13
2023-01-15T11:15:02.711Z,100724.15
2023-01-15T11:17:56.781Z,100725.76
2023-01-15T11:20:49.311Z,100726.48
2023-01-15T11:23:25.332Z,100724.90
2023-01-15T11:25:55.635Z,100720.61
2023-01-15T11:28:35.544Z,100715.35
2023-01-15T11:31:03.186Z,100714.23
2023-01-15T11:33:32.338Z,100716.08
2023-01-15T11:36:02.117Z,100713.71
2023-01-15T11:38:44.904Z,100713.84
2023-01-15T11:41:51.882Z,100713.13
2023-01-15T11:44:40.920Z,100712.20
2023-01-15T11:47:32.191Z,100713.46
2023-01-15T11:50:18.139Z,100710.19
2023-01-15T11:52:53.039Z,100710.05
2023-01-15T11:55:24.002Z,100709.42
2023-01-15T11:57:52.496Z,100706.58
2023-01-15T12:00:22.757Z,100709.55
2023-01-15T12:02:53.415Z,100715.07
2023-01-15T12:05:27.309Z,100707.91
2023-01-15T12:07:58.576Z,100709.65
2023-01-15T12:11:21.096Z,100705.63
2023-01-15T12:14:29.127Z,100705.60
2023-01-15T12:17:13.855Z,100707.80
2023-01-15T12:20:22.752Z,100707.05
2023-01-15T12:23:10.152Z,100706.47
2023-01-15T12:25:59.445Z,100710.23
2023-01-15T12:28:32.129Z,100718.34
2023-01-15T12:31:09.154Z,100717.49
2023-01-15T12:33:45.863Z,100721.91
2023-01-15T12:36:16.308Z,100719.45
2023-01-15T12:39:13.084Z,100723.68
2023-01-15T12:42:03.950Z,100719.48
2023-01-15T12:44:52.815Z,100717.08
2023-01-15T12:47:27.359Z,100719.48
2023-01-15T12:50:24.619Z,100724.39
2023-01-15T12:53:17.672Z,100721.89
2023-01-15T12:55:58.804Z,100713.02
2023-01-15T12:58:51.807Z,100716.97
2023-01-15T13:01:39.421Z,100719.98
2023-01-15T13:04:27.401Z,100722.73
2023-01-15T13:07:18.827Z,100721.36
2023-01-15T13:13:39.722Z,100723.61
2023-01-15T13:16:17.381Z,100721.95
2023-01-15T13:19:10.696Z,100723.23
2023-01-15T13:21:40.868Z,100724.66
2023-01-15T13:24:41.677Z,100723.29
2023-01-15T13:27:41.730Z,100719.73
2023-01-15T13:30:27.866Z,100724.92
2023-01-15T13:33:05.400Z,100724.70
2023-01-15T13:35:36.960Z,100722.29
2023-01-15T13:38:15.294Z,100719.54
2023-01-15T13:40:50.873Z,100720.48
2023-01-15T13:43:25.917Z,100727.61
2023-01-15T13:45:57.448Z,100724.42
2023-01-15T13:48:27.870Z,100725.63
2023-01-15T13:51:04.981Z,100725.45
2023-01-15T13:53:39.630Z,100725.85
2023-01-15T13:56:11.167Z,100729.52
2023-01-15T13:58:42.788Z,100727.73
2023-01-15T14:01:22.232Z,100724.70
2023-01-15T14:04:00.159Z,100722.90
2023-01-15T14:06:38.361Z,100727.11
2023-01-15T14:09:06.989Z,100731.73
2023-01-15T14:11:38.540Z,100731.61
2023-01-15T14:14:21.614Z,100734.80
2023-01-15T14:17:06.497Z,100733.92
2023-01-15T14:19:46.177Z,100733.09
2023-01-15T14:22:29.860Z,100732.69
2023-01-15T14:25:29.636Z,100728.89
2023-01-15T14:28:24.724Z,100724.52
2023-01-15T14:31:04.248Z,100723.60
2023-01-15T14:33:53.392Z,100722.23
2023-01-15T14:36:26.728Z,100720.32
2023-01-15T14:38:59.737Z,100720.09
2023-01-15T14:41:57.628Z,100720.71
2023-01-15T14:44:34.486Z,100719.98
2023-01-15T14:47:06.798Z,100714.61
2023-01-15T14:49:50.054Z,100713.33
2023-01-15T14:52:24.309Z,100715.08
2023-01-15T14:54:53.791Z,100719.81
2023-01-15T14:57:24.002Z,100716.17
2023-01-15T15:00:01.089Z,100718.00
2023-01-15T15:02:39.597Z,100723.30
2023-01-15T15:05:15.504Z,100723.40
2023-01-15T15:07:53.176Z,100718.82
2023-01-15T15:10:31.637Z,100726.42
2023-01-15T15:13:41.179Z,100725.61
2023-01-15T15:16:19.564Z,100723.35
2023-01-15T15:19:14.755Z,100725.61
2023-01-15T15:21:46.491Z,100726.11
2023-01-15T15:24:32.958Z,100726.95
2023-01-15T15:27:17.413Z,100726.95
2023-01-15T15:29:45.726Z,100730.52
2023-01-15T15:32:20.182Z,100730.90
2023-01-15T15:34:53.444Z,100733.55
2023-01-15T15:37:25.357Z,100733.95
2023-01-15T15:40:00.783Z,100733.10
2023-01-15T15:43:00.538Z,100733.36
2023-01-15T15:45:49.303Z,100741.13
2023-01-15T15:48:40.301Z,100736.80
2023-01-15T15:51:32.080Z,100735.91
2023-01-15T15:54:13.484Z,100737.84
2023-01-15T15:56:48.681Z,100739.08
2023-01-15T15:59:33.522Z,100739.85
2023-01-15T16:02:16.015Z,100739.00
2023-01-15T16:05:19.177Z,100743.21
2023-01-15T16:07:46.878Z,100742.89
2023-01-15T16:10:25.539Z,100740.42
2023-01-15T16:13:01.225Z,100739.35
2023-01-15T16:15:36.574Z,100737.73
2023-01-15T16:18:05.339Z,100734.73
2023-01-15T16:20:33.747Z,100732.65
2023-01-15T16:23:05.256Z,100730.05
2023-01-15T16:25:37.167Z,100732.83
2023-01-15T16:28:05.529Z,100732.64
2023-01-15T16:30:33.937Z,100724.03
2023-01-15T16:33:05.592Z,100725.93
2023-01-15T16:35:37.509Z,100725.02
2023-01-15T16:38:07.580Z,100722.20
2023-01-15T16:40:40.773Z,100721.13
2023-01-15T16:43:14.305Z,100719.21
2023-01-15T16:46:01.099Z,100720.24
2023-01-15T16:48:41.901Z,100718.42
2023-01-15T16:51:34.806Z,100719.48
2023-01-15T16:54:07.668Z,100718.37
2023-01-15T16:56:35.586Z,100719.02
2023-01-15T16:59:03.853Z,100717.73
2023-01-15T17:01:43.746Z,100716.11
2023-01-15T17:04:27.397Z,100716.77
2023-01-15T17:07:04.506Z,100715.52
2023-01-15T17:09:38.372Z,100717.64
2023-01-15T17:12:31.529Z,100714.27
2023-01-15T17:15:19.643Z,100715.80
2023-01-15T17:17:48.970Z,100711.71
2023-01-15T17:20:17.645Z,100710.11
2023-01-15T17:22:50.059Z,100709.20
2023-01-15T17:25:28.278Z,100707.39
2023-01-15T17:27:56.552Z,100712.13
2023-01-15T17:30:36.436Z,100709.84
2023-01-15T17:33:08.875Z,100709.09
2023-01-15T17:35:38.258Z,100708.58
2023-01-15T17:38:07.752Z,100706.91
2023-01-15T17:40:35.348Z,100707.88
2023-01-15T17:43:03.072Z,100710.27
2023-01-15T17:45:33.225Z,100704.93
2023-01-15T17:48:02.357Z,100704.52
2023-01-15T17:50:30.679Z,100704.30
2023-01-15T17:52:58.247Z,100707.19
2023-01-15T17:55:44.315Z,100703.61
2023-01-15T17:58:32.415Z,100704.27
2023-01-15T18:01:20.642Z,100698.28
2023-01-15T18:04:11.330Z,100692.48
2023-01-15T18:06:43.908Z,100688.54
2023-01-15T18:09:11.475Z,100688.52
2023-01-15T18:11:52.968Z,100686.39
2023-01-15T18:14:20.713Z,100679.75
2023-01-15T18:16:48.200Z,100677.13
2023-01-15T18:19:15.894Z,100681.32
2023-01-15T18:21:43.282Z,100680.75
2023-01-15T18:24:17.392Z,100681.73
2023-01-15T18:26:45.509Z,100683.98
2023-01-15T18:29:13.938Z,100680.80
2023-01-15T18:31:42.660Z,100682.21
2023-01-15T18:34:10.560Z,100681.49
2023-01-15T18:36:38.841Z,100679.71
2023-01-15T18:39:07.238Z,100679.70
2023-01-15T18:41:36.320Z,100683.94
2023-01-15T18:44:24.464Z,100687.84
2023-01-15T18:46:55.788Z,100689.52
2023-01-15T18:49:23.240Z,100684.30
2023-01-15T18:52:09.725Z,100683.51
2023-01-15T18:54:39.397Z,100686.02
2023-01-15T18:57:07.089Z,100684.20
2023-01-15T18:59:34.616Z,100673.20
2023-01-15T19:02:02.625Z,100675.40
2023-01-15T19:04:30.127Z,100673.92
2023-01-15T19:06:57.676Z,100670.38
2023-01-15T19:09:25.973Z,100669.81
2023-01-15T19:11:54.147Z,100665.95
2023-01-15T19:14:41.042Z,100661.75
2023-01-15T19:17:33.376Z,100660.28
2023-01-15T19:20:00.546Z,100653.29
2023-01-15T19:22:46.358Z,100652.55
2023-01-15T19:25:13.509Z,100645.65
2023-01-15T19:27:40.656Z,100644.39
2023-01-15T19:30:10.580Z,100646.39
2023-01-15T19:32:38.049Z,100651.43
2023-01-15T19:35:05.468Z,100651.04
2023-01-15T19:37:37.528Z,100649.36
2023-01-15T19:40:08.337Z,100643.26
2023-01-15T19:42:54.515Z,100643.47
2023-01-15T19:45:40.325Z,100642.41
2023-01-15T19:48:34.286Z,100643.14
2023-01-15T19:51:01.922Z,100639.90
2023-01-15T19:53:29.490Z,100642.87
2023-01-15T19:55:57.737Z,100645.86
2023-01-15T19:58:24.813Z,100648.17
2023-01-15T20:00:53.295Z,100645.02
2023-01-15T20:03:20.837Z,100641.14
2023-01-15T20:05:48.208Z,100643.95
2023-01-15T20:08:18.960Z,100651.14
2023-01-15T20:10:48.324Z,100647.03
2023-01-15T20:13:39.657Z,100640.14
2023-01-15T20:16:15.711Z,100641.67
2023-01-15T20:18:43.674Z,100639.85
2023-01-15T20:21:15.453Z,100634.65
2023-01-15T20:23:44.013Z,100634.17
2023-01-15T20:26:13.764Z,100634.55
2023-01-15T20:28:42.884Z,100631.61
2023-01-15T20:31:18.961Z,100632.55
2023-01-15T20:33:47.622Z,100630.61
2023-01-15T20:36:15.600Z,100633.09
2023-01-15T20:38:43.130Z,100630.80
2023-01-15T20:41:30.394Z,100629.05
2023-01-15T20:44:16.502Z,100628.20
2023-01-15T20:46:43.995Z,100626.63
2023-01-15T20:49:28.148Z,100625.89
2023-01-15T20:51:57.689Z,100625.64
2023-01-15T20:54:26.278Z,100626.16
2023-01-15T20:56:53.801Z,100624.91
2023-01-15T20:59:21.324Z,100624.19
2023-01-15T21:01:49.252Z,100624.63
2023-01-15T21:04:16.900Z,100620.54
2023-01-15T21:06:44.043Z,100618.79
2023-01-15T21:09:11.193Z,100616.17
2023-01-15T21:11:38.244Z,100615.46
2023-01-15T21:14:05.564Z,100612.31
2023-01-15T21:16:32.950Z,100613.19
2023-01-15T21:19:01.553Z,100614.96
2023-01-15T21:21:29.324Z,100612.41
2023-01-15T21:24:00.438Z,100608.85
2023-01-15T21:26:29.133Z,100605.80
2023-01-15T21:28:56.372Z,100607.55
2023-01-15T21:31:23.907Z,100608.07
2023-01-15T21:33:56.289Z,100611.39
2023-01-15T21:36:24.759Z,100612.26
2023-01-15T21:38:54.600Z,100610.42
2023-01-15T21:41:43.595Z,100610.02
2023-01-15T21:44:32.316Z,100610.27
2023-01-15T21:47:02.724Z,100606.17
2023-01-15T21:49:33.917Z,100610.20
2023-01-15T21:52:04.351Z,100606.64
2023-01-15T21:54:32.777Z,100605.67
2023-01-15T21:57:00.160Z,100607.73
2023-01-15T21:59:28.040Z,100609.70
2023-01-15T22:01:57.046Z,100604.94
2023-01-15T22:04:25.942Z,100602.02
2023-01-15T22:06:54.741Z,100600.54
2023-01-15T22:09:22.842Z,100603.21
2023-01-15T22:11:52.796Z,100606.92
2023-01-15T22:14:25.577Z,100608.78
2023-01-15T22:16:54.417Z,100610.92
2023-01-15T22:19:23.774Z,100610.04
2023-01-15T22:21:52.832Z,100607.33
2023-01-15T22:24:20.661Z,100603.37
2023-01-15T22:26:54.943Z,100600.94
2023-01-15T22:29:28.130Z,100605.04
2023-01-15T22:31:55.892Z,100605.40
2023-01-15T22:34:24.020Z,100606.47
2023-01-15T22:36:52.459Z,100603.70
2023-01-15T22:39:21.188Z,100600.58
2023-01-15T22:42:14.783Z,100597.29
2023-01-15T22:44:44.311Z,100594.03
2023-01-15T22:47:13.875Z,100603.52
2023-01-15T22:49:40.987Z,100604.19
2023-01-15T22:52:08.738Z,100610.14
2023-01-15T22:54:36.237Z,100609.35
2023-01-15T22:57:04.478Z,100604.81
2023-01-15T22:59:31.803Z,100603.13
2023-01-15T23:01:59.183Z,100605.33
2023-01-15T23:04:26.909Z,100605.46
2023-01-15T23:06:54.494Z,100605.41
2023-01-15T23:09:23.659Z,100601.02
2023-01-15T23:11:51.795Z,100595.88
2023-01-15T23:14:21.438Z,100594.80
2023-01-15T23:16:49.394Z,100604.00
2023-01-15T23:19:17.895Z,100611.79
2023-01-15T23:21:45.646Z,100616.23
2023-01-15T23:24:12.916Z,100616.29
2023-01-15T23:26:40.124Z,100619.82
2023-01-15T23:29:07.646Z,100615.94
2023-01-15T23:31:35.009Z,100616.05
2023-01-15T23:34:02.434Z,100620.98
2023-01-15T23:36:29.793Z,100619.94
2023-01-15T23:38:57.285Z,100620.73
2023-01-15T23:41:44.150Z,100617.60
2023-01-15T23:44:38.698Z,100619.01
2023-01-15T23:47:07.391Z,100617.61
2023-01-15T23:49:34.974Z,100615.92
2023-01-15T23:52:02.378Z,100614.84
2023-01-15T23:54:31.779Z,100611.86
2023-01-15T23:57:01.130Z,100611.71
2023-01-15T23:59:29.191Z,100610.18
